Sana — LEWP — position and weather

sailwx.info

Track history (hours):
 
Tides and Currents Weather Stations Pressure Air Temp Water Temp Dewpoint Dewpoint Depression Visibility Wind Speed Wind Dir Waves Ship Positions

Sana

Last reported at 2018-Jun-10 10:11 UTC. Time now 2018-Jun-20 04:00 UTC.
Position N 58°56' E 011°10'.
Warning: this ship's position is 9 days out of date.

Length 20 m; draft 2.5 m.

MMSI: 257009720.

Date/timePositionNaut miles runAvg speedWind from/ knotsBaromVisibWave heightAir tempDewpointWater temp
2018-Jun-10 10:11N 58°56' E 011°10'0 0.0
2018-Jun-10 10:00N 58°56' E 011°10'2 3.5
2018-Jun-10 09:30N 58°55' E 011°07'3 6.8
2018-Jun-10 09:01N 58°52' E 011°06'4 7.7
2018-Jun-10 08:30N 58°49' E 011°09'3 5.2
2018-Jun-10 08:00N 58°46' E 011°11'0 0.0
2018-Jun-10 07:30N 58°46' E 011°11'0 0.0
2018-Jun-10 07:00N 58°46' E 011°11'0 0.0
2018-Jun-10 06:30N 58°46' E 011°11'0 0.0
2018-Jun-10 06:00N 58°46' E 011°11'0 0.0
2018-Jun-10 05:30N 58°46' E 011°11'0 0.0
2018-Jun-10 05:00N 58°46' E 011°11'0 0.0
2018-Jun-10 04:30N 58°46' E 011°11'0 0.0
2018-Jun-10 04:00N 58°46' E 011°11'0 0.0
2018-Jun-10 03:30N 58°46' E 011°11'0 0.0
2018-Jun-10 03:00N 58°46' E 011°11'0 0.0
2018-Jun-10 02:30N 58°46' E 011°11'0 0.0
2018-Jun-10 02:00N 58°46' E 011°11'0 0.0
2018-Jun-10 01:30N 58°46' E 011°11'0 0.0
2018-Jun-10 01:00N 58°46' E 011°11'0 0.0
2018-Jun-10 00:30N 58°46' E 011°11'0 0.0
2018-Jun-10 00:00N 58°46' E 011°11'0 0.0
2018-Jun-09 23:30N 58°46' E 011°11'0 0.0
2018-Jun-09 23:00N 58°46' E 011°11'0 0.0
2018-Jun-09 22:30N 58°46' E 011°11'0 0.0
2018-Jun-09 22:00N 58°46' E 011°11'0 0.0
2018-Jun-09 21:30N 58°46' E 011°11'0 0.0
2018-Jun-09 21:00N 58°46' E 011°11'0 0.0
2018-Jun-09 20:30N 58°46' E 011°11'0 0.0
2018-Jun-09 20:00N 58°46' E 011°11'0 0.0
2018-Jun-09 19:30N 58°46' E 011°11'0 0.0
2018-Jun-09 19:00N 58°46' E 011°11'0 0.0
2018-Jun-09 18:30N 58°46' E 011°11'0 0.0
2018-Jun-09 18:00N 58°46' E 011°11'0 0.0
2018-Jun-09 17:30N 58°46' E 011°11'0 0.0
2018-Jun-09 17:00N 58°46' E 011°11'0 0.0
2018-Jun-09 16:30N 58°46' E 011°11'0 0.0
2018-Jun-09 16:00N 58°46' E 011°11'0 0.0
2018-Jun-09 15:00N 58°46' E 011°11'0 0.0
2018-Jun-09 14:30N 58°46' E 011°11'0 0.0
2018-Jun-09 14:00N 58°46' E 011°11'0 0.0
2018-Jun-09 13:30N 58°46' E 011°11'0 0.0
2018-Jun-09 13:01N 58°46' E 011°11'1 1.3
2018-Jun-09 12:30N 58°45' E 011°11'0 0.6
2018-Jun-09 12:00N 58°45' E 011°11'4 7.4
2018-Jun-09 11:30N 58°41' E 011°10'4 7.5
2018-Jun-09 11:00N 58°38' E 011°12'3 3.1
2018-Jun-09 10:00N 58°36' E 011°17'0 0.0
2018-Jun-09 09:30N 58°36' E 011°17'0 0.0
2018-Jun-09 09:00N 58°36' E 011°17'0 0.0
2018-Jun-09 08:30N 58°36' E 011°17'0 0.0
2018-Jun-09 08:00N 58°36' E 011°17'0 0.0
2018-Jun-09 07:26N 58°36' E 011°17'0 0.0
2018-Jun-09 06:31N 58°36' E 011°17'0 0.0
2018-Jun-09 06:30N 58°36' E 011°17'0 0.0
2018-Jun-09 05:38N 58°36' E 011°17'0 0.0
2018-Jun-09 05:15N 58°36' E 011°17'0 0.0
2018-Jun-09 05:00N 58°36' E 011°17'0 0.0
2018-Jun-09 04:29N 58°36' E 011°17'0 0.0
2018-Jun-09 04:00N 58°36' E 011°17'0 0.0
2018-Jun-09 03:30N 58°36' E 011°17'0 0.0
2018-Jun-09 03:00N 58°36' E 011°17'0 0.0
2018-Jun-09 02:30N 58°36' E 011°17'0 0.0
2018-Jun-09 01:59N 58°36' E 011°17'0 0.0
2018-Jun-09 01:30N 58°36' E 011°17'0 0.0
2018-Jun-09 01:00N 58°36' E 011°17'0 0.0
2018-Jun-09 00:30N 58°36' E 011°17'0 0.0
2018-Jun-09 00:00N 58°36' E 011°17'0 0.0
2018-Jun-08 23:30N 58°36' E 011°17'0 0.0
2018-Jun-08 23:00N 58°36' E 011°17'0 0.0
2018-Jun-08 22:30N 58°36' E 011°17'0 0.0
2018-Jun-08 22:00N 58°36' E 011°17'0 0.0
2018-Jun-08 21:30N 58°36' E 011°17'0 0.0
2018-Jun-08 21:00N 58°36' E 011°17'0 0.0
2018-Jun-08 20:30N 58°36' E 011°17'0 0.0
2018-Jun-08 20:00N 58°36' E 011°17'0 0.0
2018-Jun-08 19:30N 58°36' E 011°17'0 0.0
2018-Jun-08 19:00N 58°36' E 011°17'0 0.0
2018-Jun-08 18:30N 58°36' E 011°17'0 0.0
2018-Jun-08 18:00N 58°36' E 011°17'0 0.0
2018-Jun-08 17:30N 58°36' E 011°17'0 0.0
2018-Jun-08 17:00N 58°36' E 011°17'0 0.1
2018-Jun-08 16:30N 58°36' E 011°17'3 5.4
2018-Jun-08 16:00N 58°33' E 011°16'3 6.6
2018-Jun-08 15:30N 58°30' E 011°17'4 8.5
2018-Jun-08 15:00N 58°26' E 011°16'3 6.7
2018-Jun-08 14:30N 58°23' E 011°13'3 5.2
2018-Jun-08 14:00N 58°21' E 011°17'4 8.3
2018-Jun-08 13:30N 58°18' E 011°22'4 8.1
2018-Jun-08 13:00N 58°14' E 011°25'  
Track history (hours):
 
Tides and Currents Weather Stations Pressure Air Temp Water Temp Dewpoint Dewpoint Depression Visibility Wind Speed Wind Dir Waves Ship Positions

Sana

Last reported at 2018-Jun-10 10:11 UTC. Time now 2018-Jun-20 04:00 UTC.
Position N 58°56' E 011°10'.
Warning: this ship's position is 9 days out of date.

Length 20 m; draft 2.5 m.

MMSI: 257009720.

Date/timePositionNaut miles runAvg speedWind from/ knotsBaromVisibWave heightAir tempDewpointWater temp
2018-Jun-10 10:11N 58°56' E 011°10'0 0.0
2018-Jun-10 10:00N 58°56' E 011°10'2 3.5
2018-Jun-10 09:30N 58°55' E 011°07'3 6.8
2018-Jun-10 09:01N 58°52' E 011°06'4 7.7
2018-Jun-10 08:30N 58°49' E 011°09'3 5.2
2018-Jun-10 08:00N 58°46' E 011°11'0 0.0
2018-Jun-10 07:30N 58°46' E 011°11'0 0.0
2018-Jun-10 07:00N 58°46' E 011°11'0 0.0
2018-Jun-10 06:30N 58°46' E 011°11'0 0.0
2018-Jun-10 06:00N 58°46' E 011°11'0 0.0
2018-Jun-10 05:30N 58°46' E 011°11'0 0.0
2018-Jun-10 05:00N 58°46' E 011°11'0 0.0
2018-Jun-10 04:30N 58°46' E 011°11'0 0.0
2018-Jun-10 04:00N 58°46' E 011°11'0 0.0
2018-Jun-10 03:30N 58°46' E 011°11'0 0.0
2018-Jun-10 03:00N 58°46' E 011°11'0 0.0
2018-Jun-10 02:30N 58°46' E 011°11'0 0.0
2018-Jun-10 02:00N 58°46' E 011°11'0 0.0
2018-Jun-10 01:30N 58°46' E 011°11'0 0.0
2018-Jun-10 01:00N 58°46' E 011°11'0 0.0
2018-Jun-10 00:30N 58°46' E 011°11'0 0.0
2018-Jun-10 00:00N 58°46' E 011°11'0 0.0
2018-Jun-09 23:30N 58°46' E 011°11'0 0.0
2018-Jun-09 23:00N 58°46' E 011°11'0 0.0
2018-Jun-09 22:30N 58°46' E 011°11'0 0.0
2018-Jun-09 22:00N 58°46' E 011°11'0 0.0
2018-Jun-09 21:30N 58°46' E 011°11'0 0.0
2018-Jun-09 21:00N 58°46' E 011°11'0 0.0
2018-Jun-09 20:30N 58°46' E 011°11'0 0.0
2018-Jun-09 20:00N 58°46' E 011°11'0 0.0
2018-Jun-09 19:30N 58°46' E 011°11'0 0.0
2018-Jun-09 19:00N 58°46' E 011°11'0 0.0
2018-Jun-09 18:30N 58°46' E 011°11'0 0.0
2018-Jun-09 18:00N 58°46' E 011°11'0 0.0
2018-Jun-09 17:30N 58°46' E 011°11'0 0.0
2018-Jun-09 17:00N 58°46' E 011°11'0 0.0
2018-Jun-09 16:30N 58°46' E 011°11'0 0.0
2018-Jun-09 16:00N 58°46' E 011°11'0 0.0
2018-Jun-09 15:00N 58°46' E 011°11'0 0.0
2018-Jun-09 14:30N 58°46' E 011°11'0 0.0
2018-Jun-09 14:00N 58°46' E 011°11'0 0.0
2018-Jun-09 13:30N 58°46' E 011°11'0 0.0
2018-Jun-09 13:01N 58°46' E 011°11'1 1.3
2018-Jun-09 12:30N 58°45' E 011°11'0 0.6
2018-Jun-09 12:00N 58°45' E 011°11'4 7.4
2018-Jun-09 11:30N 58°41' E 011°10'4 7.5
2018-Jun-09 11:00N 58°38' E 011°12'3 3.1
2018-Jun-09 10:00N 58°36' E 011°17'0 0.0
2018-Jun-09 09:30N 58°36' E 011°17'0 0.0
2018-Jun-09 09:00N 58°36' E 011°17'0 0.0
2018-Jun-09 08:30N 58°36' E 011°17'0 0.0
2018-Jun-09 08:00N 58°36' E 011°17'0 0.0
2018-Jun-09 07:26N 58°36' E 011°17'0 0.0
2018-Jun-09 06:31N 58°36' E 011°17'0 0.0
2018-Jun-09 06:30N 58°36' E 011°17'0 0.0
2018-Jun-09 05:38N 58°36' E 011°17'0 0.0
2018-Jun-09 05:15N 58°36' E 011°17'0 0.0
2018-Jun-09 05:00N 58°36' E 011°17'0 0.0
2018-Jun-09 04:29N 58°36' E 011°17'0 0.0
2018-Jun-09 04:00N 58°36' E 011°17'0 0.0
2018-Jun-09 03:30N 58°36' E 011°17'0 0.0
2018-Jun-09 03:00N 58°36' E 011°17'0 0.0
2018-Jun-09 02:30N 58°36' E 011°17'0 0.0
2018-Jun-09 01:59N 58°36' E 011°17'0 0.0
2018-Jun-09 01:30N 58°36' E 011°17'0 0.0
2018-Jun-09 01:00N 58°36' E 011°17'0 0.0
2018-Jun-09 00:30N 58°36' E 011°17'0 0.0
2018-Jun-09 00:00N 58°36' E 011°17'0 0.0
2018-Jun-08 23:30N 58°36' E 011°17'0 0.0
2018-Jun-08 23:00N 58°36' E 011°17'0 0.0
2018-Jun-08 22:30N 58°36' E 011°17'0 0.0
2018-Jun-08 22:00N 58°36' E 011°17'0 0.0
2018-Jun-08 21:30N 58°36' E 011°17'0 0.0
2018-Jun-08 21:00N 58°36' E 011°17'0 0.0
2018-Jun-08 20:30N 58°36' E 011°17'0 0.0
2018-Jun-08 20:00N 58°36' E 011°17'0 0.0
2018-Jun-08 19:30N 58°36' E 011°17'0 0.0
2018-Jun-08 19:00N 58°36' E 011°17'0 0.0
2018-Jun-08 18:30N 58°36' E 011°17'0 0.0
2018-Jun-08 18:00N 58°36' E 011°17'0 0.0
2018-Jun-08 17:30N 58°36' E 011°17'0 0.0
2018-Jun-08 17:00N 58°36' E 011°17'0 0.1
2018-Jun-08 16:30N 58°36' E 011°17'3 5.4
2018-Jun-08 16:00N 58°33' E 011°16'3 6.6
2018-Jun-08 15:30N 58°30' E 011°17'4 8.5
2018-Jun-08 15:00N 58°26' E 011°16'3 6.7
2018-Jun-08 14:30N 58°23' E 011°13'3 5.2
2018-Jun-08 14:00N 58°21' E 011°17'4 8.3
2018-Jun-08 13:30N 58°18' E 011°22'4 8.1
2018-Jun-08 13:00N 58°14' E 011°25'  

Dump ship's entire track history